Time;durP1;ratioP1;P1;durP2;ratioP2;P2;SDS_P1;SDS_P2;PMS_P1;PMS_P2;Temp;Humidity;BMP_temperature;BMP_pressure;BME280_temperature;BME280_humidity;BME280_pressure;Samples;Min_cycle;Max_cycle;Signal;HPM_P1;HPM_P2
2021/12/24 00:03:39;;;;;;;13.70;8.65;;;;;;;;;;8281116;28;20076;-67
2021/12/24 00:07:39;;;;;;;12.13;8.77;;;;;;;;;;8284445;28;20501;-67
2021/12/24 00:11:40;;;;;;;12.20;8.43;;;;;;;;;;8279932;28;20103;-67
2021/12/24 00:20:47;;;;;;;15.65;9.43;;;;;;;;;;8282926;28;20371;-67
2021/12/24 00:37:35;;;;;;;11.65;8.38;;;;;;;;;;8281793;28;20051;-68
2021/12/24 00:41:35;;;;;;;13.85;9.50;;;;;;;;;;8282194;28;20053;-67
2021/12/24 00:45:37;;;;;;;13.98;9.10;;;;;;;;;;8281419;28;20044;-68
2021/12/24 00:49:37;;;;;;;15.82;9.60;;;;;;;;;;8280931;28;20108;-67
2021/12/24 00:57:41;;;;;;;15.02;9.23;;;;;;;;;;8287704;28;20041;-67
2021/12/24 01:01:41;;;;;;;15.48;8.88;;;;;;;;;;8285673;28;20072;-67
2021/12/24 01:05:41;;;;;;;15.45;9.27;;;;;;;;;;8287388;28;20032;-68
2021/12/24 01:09:43;;;;;;;15.82;8.95;;;;;;;;;;8287228;28;20033;-67
2021/12/24 01:13:43;;;;;;;13.63;9.38;;;;;;;;;;8286095;28;20398;-67
2021/12/24 01:17:56;;;;;;;12.30;8.73;;;;;;;;;;8286385;28;20150;-67
2021/12/24 01:26:23;;;;;;;15.10;8.23;;;;;;;;;;8286329;28;20117;-67
2021/12/24 01:38:58;;;;;;;14.07;8.82;;;;;;;;;;8285722;28;20549;-67
2021/12/24 01:42:59;;;;;;;13.82;8.18;;;;;;;;;;8283761;28;20035;-67
2021/12/24 01:47:00;;;;;;;15.80;8.57;;;;;;;;;;8283776;28;20163;-64
2021/12/24 01:51:00;;;;;;;12.20;8.88;;;;;;;;;;8287126;28;20067;-65
2021/12/24 01:55:00;;;;;;;13.13;8.27;;;;;;;;;;8286212;28;20029;-64
2021/12/24 01:59:01;;;;;;;12.75;7.90;;;;;;;;;;8285563;28;20072;-64
2021/12/24 02:03:01;;;;;;;11.32;7.28;;;;;;;;;;8285645;28;20045;-67
2021/12/24 02:07:01;;;;;;;10.18;7.38;;;;;;;;;;8286270;28;20022;-67
2021/12/24 02:11:01;;;;;;;13.17;7.97;;;;;;;;;;8286726;28;20025;-67
2021/12/24 02:15:09;;;;;;;13.23;8.00;;;;;;;;;;8286592;28;20347;-67
2021/12/24 02:32:04;;;;;;;11.23;7.90;;;;;;;;;;8291889;28;20091;-65
2021/12/24 02:36:05;;;;;;;10.30;7.68;;;;;;;;;;8293585;28;20045;-67
2021/12/24 02:40:06;;;;;;;12.10;7.88;;;;;;;;;;8291518;28;20025;-67
2021/12/24 02:44:06;;;;;;;12.23;8.38;;;;;;;;;;8292466;28;20025;-68
2021/12/24 02:56:29;;;;;;;17.30;10.50;;;;;;;;;;8292292;28;20110;-65
2021/12/24 03:00:29;;;;;;;14.23;9.88;;;;;;;;;;8290672;28;20447;-65
2021/12/24 03:04:30;;;;;;;19.85;12.38;;;;;;;;;;8290662;28;20167;-65
2021/12/24 03:08:30;;;;;;;14.40;10.45;;;;;;;;;;8292113;28;20091;-65
2021/12/24 03:12:31;;;;;;;17.58;11.15;;;;;;;;;;8290960;28;20037;-65
2021/12/24 03:16:31;;;;;;;16.90;10.95;;;;;;;;;;8290241;28;20068;-65
2021/12/24 03:20:34;;;;;;;19.58;11.10;;;;;;;;;;8290147;28;20030;-65
2021/12/24 03:24:34;;;;;;;19.73;11.43;;;;;;;;;;8287752;28;20148;-64
2021/12/24 03:28:34;;;;;;;18.15;12.00;;;;;;;;;;8291079;28;20068;-64
2021/12/24 03:32:35;;;;;;;22.20;13.85;;;;;;;;;;8289916;28;20128;-65
2021/12/24 03:36:35;;;;;;;22.98;13.18;;;;;;;;;;8289799;28;20060;-65
2021/12/24 03:40:35;;;;;;;25.20;13.50;;;;;;;;;;8289887;28;20038;-65
2021/12/24 03:44:42;;;;;;;22.52;13.52;;;;;;;;;;8289765;28;20107;-65
2021/12/24 03:53:04;;;;;;;21.13;13.90;;;;;;;;;;8290099;28;20030;-65
2021/12/24 03:57:05;;;;;;;25.90;14.15;;;;;;;;;;8287820;28;20752;-65
2021/12/24 04:01:05;;;;;;;27.65;14.77;;;;;;;;;;8288651;28;20863;-65
2021/12/24 04:05:06;;;;;;;27.27;15.48;;;;;;;;;;8289949;28;20055;-65
2021/12/24 04:09:08;;;;;;;24.98;13.57;;;;;;;;;;8289900;28;20114;-65
2021/12/24 04:13:09;;;;;;;27.52;15.75;;;;;;;;;;8285968;28;21222;-65
2021/12/24 04:17:09;;;;;;;26.00;14.05;;;;;;;;;;8286567;28;20144;-65
2021/12/24 04:25:29;;;;;;;27.05;15.68;;;;;;;;;;8289879;28;20354;-65
2021/12/24 04:29:29;;;;;;;30.10;17.02;;;;;;;;;;8287830;28;20029;-65
2021/12/24 04:33:34;;;;;;;25.67;14.93;;;;;;;;;;8286920;28;20122;-65
2021/12/24 04:51:12;;;;;;;30.55;14.70;;;;;;;;;;8287157;28;20966;-65
2021/12/24 05:03:50;;;;;;;26.02;16.05;;;;;;;;;;8285001;28;20127;-65
2021/12/24 05:11:51;;;;;;;25.88;14.55;;;;;;;;;;8286347;28;20063;-65
2021/12/24 05:16:01;;;;;;;26.17;14.63;;;;;;;;;;8286943;28;20037;-65
2021/12/24 05:24:23;;;;;;;29.13;16.58;;;;;;;;;;8286648;28;20044;-65
2021/12/24 05:28:24;;;;;;;29.92;16.98;;;;;;;;;;8287066;28;20025;-64
2021/12/24 05:32:24;;;;;;;31.85;17.00;;;;;;;;;;8286665;28;20409;-65
2021/12/24 05:36:24;;;;;;;25.42;15.18;;;;;;;;;;8286886;28;20022;-65
2021/12/24 05:40:24;;;;;;;24.42;15.60;;;;;;;;;;8287003;28;20033;-65
2021/12/24 05:44:25;;;;;;;24.10;14.33;;;;;;;;;;8287244;28;20029;-65
2021/12/24 05:48:25;;;;;;;24.35;14.18;;;;;;;;;;8285952;28;20276;-65
2021/12/24 05:52:25;;;;;;;26.40;15.32;;;;;;;;;;8287375;28;20110;-65
2021/12/24 05:56:25;;;;;;;28.08;16.02;;;;;;;;;;8286536;28;20052;-65
2021/12/24 06:00:26;;;;;;;32.83;16.98;;;;;;;;;;8286706;28;20163;-65
2021/12/24 06:04:26;;;;;;;25.75;15.18;;;;;;;;;;8293273;28;20032;-65
2021/12/24 06:08:27;;;;;;;27.15;15.80;;;;;;;;;;8291813;28;20053;-64
2021/12/24 06:12:27;;;;;;;28.13;15.40;;;;;;;;;;8292680;28;20670;-65
2021/12/24 06:16:28;;;;;;;31.92;17.83;;;;;;;;;;8292375;28;20064;-65
2021/12/24 06:20:28;;;;;;;28.27;16.23;;;;;;;;;;8293190;28;20853;-65
2021/12/24 06:24:28;;;;;;;21.92;14.02;;;;;;;;;;8293638;28;20785;-65
2021/12/24 06:28:28;;;;;;;26.42;15.32;;;;;;;;;;8291399;28;20645;-65
2021/12/24 06:32:28;;;;;;;27.60;15.90;;;;;;;;;;8290909;28;20041;-65
2021/12/24 06:36:33;;;;;;;30.95;15.52;;;;;;;;;;8293034;28;20036;-66
2021/12/24 06:40:34;;;;;;;33.55;15.70;;;;;;;;;;8290904;28;20032;-65
2021/12/24 06:44:34;;;;;;;29.55;15.73;;;;;;;;;;8292398;28;20128;-65
2021/12/24 06:48:35;;;;;;;28.50;16.80;;;;;;;;;;8291283;28;20060;-65
2021/12/24 06:52:35;;;;;;;24.92;14.98;;;;;;;;;;8291247;28;20021;-65
2021/12/24 06:56:35;;;;;;;23.77;14.20;;;;;;;;;;8291304;28;20033;-65
2021/12/24 07:00:36;;;;;;;23.37;13.53;;;;;;;;;;8290265;28;20602;-64
2021/12/24 07:04:36;;;;;;;22.90;13.45;;;;;;;;;;8292487;28;20292;-64
2021/12/24 07:08:36;;;;;;;20.42;12.20;;;;;;;;;;8292132;28;20025;-65
2021/12/24 07:12:37;;;;;;;17.83;11.45;;;;;;;;;;8284812;28;20524;-64
2021/12/24 07:16:37;;;;;;;20.80;12.73;;;;;;;;;;8283123;28;20037;-65
2021/12/24 07:20:37;;;;;;;15.80;10.32;;;;;;;;;;8284430;28;20482;-65
2021/12/24 07:24:37;;;;;;;16.88;11.48;;;;;;;;;;8281485;28;20033;-65
2021/12/24 07:28:37;;;;;;;18.60;11.95;;;;;;;;;;8286880;28;20991;-67
2021/12/24 07:32:39;;;;;;;19.67;11.27;;;;;;;;;;8285475;28;20538;-67
2021/12/24 07:36:39;;;;;;;16.98;11.60;;;;;;;;;;8284805;28;20284;-67
2021/12/24 07:40:40;;;;;;;14.85;10.05;;;;;;;;;;8283265;28;20093;-67
2021/12/24 07:44:40;;;;;;;13.73;9.40;;;;;;;;;;8283097;28;20429;-65
2021/12/24 07:48:49;;;;;;;13.27;9.30;;;;;;;;;;8283358;28;20044;-65
2021/12/24 07:52:50;;;;;;;12.32;8.43;;;;;;;;;;8284951;28;20611;-68
2021/12/24 07:56:50;;;;;;;13.77;8.60;;;;;;;;;;8282435;28;20330;-67
2021/12/24 08:00:51;;;;;;;14.50;8.68;;;;;;;;;;8281813;28;20037;-67
2021/12/24 08:04:53;;;;;;;11.68;7.40;;;;;;;;;;8283652;28;20104;-65
2021/12/24 08:08:53;;;;;;;11.27;8.13;;;;;;;;;;8284310;28;20646;-65
2021/12/24 08:12:54;;;;;;;9.10;7.38;;;;;;;;;;8283762;28;20030;-65
2021/12/24 08:16:54;;;;;;;11.88;8.10;;;;;;;;;;8282913;28;20080;-68
2021/12/24 08:20:54;;;;;;;12.35;8.75;;;;;;;;;;8283525;28;20037;-68
2021/12/24 08:24:55;;;;;;;12.10;8.75;;;;;;;;;;8280636;28;20025;-68
2021/12/24 08:28:55;;;;;;;13.02;8.85;;;;;;;;;;8282724;28;20040;-67
2021/12/24 08:32:56;;;;;;;16.15;9.38;;;;;;;;;;8282165;28;20613;-65
2021/12/24 08:36:57;;;;;;;13.63;9.70;;;;;;;;;;8281200;28;20029;-64
2021/12/24 08:40:57;;;;;;;15.80;10.93;;;;;;;;;;8280531;28;20198;-68
2021/12/24 08:44:57;;;;;;;15.23;10.07;;;;;;;;;;8281426;28;20053;-68
2021/12/24 08:48:58;;;;;;;13.45;9.50;;;;;;;;;;8281548;28;20033;-68
2021/12/24 08:52:58;;;;;;;14.00;9.32;;;;;;;;;;8280065;28;20033;-68
2021/12/24 08:56:58;;;;;;;14.23;9.93;;;;;;;;;;8279292;28;20444;-68
2021/12/24 09:00:59;;;;;;;12.85;8.85;;;;;;;;;;8281631;28;20065;-67
2021/12/24 09:04:59;;;;;;;13.25;9.68;;;;;;;;;;8280696;28;20021;-67
2021/12/24 09:08:59;;;;;;;13.75;9.30;;;;;;;;;;8282751;28;20025;-68
2021/12/24 09:13:00;;;;;;;11.97;8.70;;;;;;;;;;8279012;28;20029;-65
2021/12/24 09:17:02;;;;;;;12.50;8.63;;;;;;;;;;8278708;28;20283;-65
2021/12/24 09:21:03;;;;;;;9.23;7.53;;;;;;;;;;8281370;28;20124;-65
2021/12/24 09:25:03;;;;;;;11.45;7.97;;;;;;;;;;8281351;28;20057;-65
2021/12/24 09:29:05;;;;;;;9.85;7.40;;;;;;;;;;8281339;28;20533;-65
2021/12/24 09:33:05;;;;;;;10.95;7.88;;;;;;;;;;8281837;28;20035;-65
2021/12/24 09:37:05;;;;;;;9.97;6.83;;;;;;;;;;8280731;28;20516;-65
2021/12/24 09:41:06;;;;;;;13.15;7.47;;;;;;;;;;8283067;28;20475;-65
2021/12/24 09:45:07;;;;;;;10.73;7.87;;;;;;;;;;8282452;28;20313;-66
2021/12/24 09:49:08;;;;;;;11.15;8.65;;;;;;;;;;8282345;28;20283;-68
2021/12/24 09:53:08;;;;;;;15.05;10.00;;;;;;;;;;8286213;28;20026;-65
2021/12/24 09:57:09;;;;;;;13.30;10.18;;;;;;;;;;8291998;28;20040;-65
2021/12/24 10:01:34;;;;;;;11.73;8.60;;;;;;;;;;8291861;28;20385;-65
2021/12/24 10:05:43;;;;;;;12.55;8.45;;;;;;;;;;8274566;28;20034;-65
2021/12/24 10:09:51;;;;;;;10.35;7.95;;;;;;;;;;8294254;28;20017;-65
2021/12/24 10:14:06;;;;;;;11.60;8.73;;;;;;;;;;8283634;28;20029;-68
2021/12/24 10:18:28;;;;;;;12.50;8.68;;;;;;;;;;8304438;28;20180;-66
2021/12/24 10:22:28;;;;;;;10.77;7.63;;;;;;;;;;8294726;28;20029;-66
2021/12/24 10:26:42;;;;;;;11.07;8.03;;;;;;;;;;8295272;28;20026;-66
2021/12/24 10:30:42;;;;;;;10.55;8.55;;;;;;;;;;8282107;28;20260;-66
2021/12/24 10:34:44;;;;;;;13.98;9.70;;;;;;;;;;8293920;28;20029;-66
2021/12/24 10:38:53;;;;;;;11.57;7.78;;;;;;;;;;8292792;28;20742;-65
2021/12/24 10:42:55;;;;;;;10.90;8.48;;;;;;;;;;8295653;28;20068;-67
2021/12/24 10:47:05;;;;;;;10.15;8.05;;;;;;;;;;8293597;28;20219;-66
2021/12/24 10:51:42;;;;;;;12.60;9.68;;;;;;;;;;8299136;28;20068;-67
2021/12/24 10:55:49;;;;;;;8.82;7.32;;;;;;;;;;8300551;28;20521;-66
2021/12/24 10:59:53;;;;;;;9.20;7.07;;;;;;;;;;8315743;28;20033;-66
2021/12/24 11:03:58;;;;;;;10.27;7.22;;;;;;;;;;8296934;28;20037;-66
2021/12/24 11:07:59;;;;;;;10.18;7.47;;;;;;;;;;8314721;28;20029;-66
2021/12/24 11:11:59;;;;;;;9.38;6.97;;;;;;;;;;8296974;28;20414;-66
2021/12/24 11:16:10;;;;;;;8.15;6.45;;;;;;;;;;8284073;28;20096;-66
2021/12/24 11:20:13;;;;;;;9.40;6.85;;;;;;;;;;8285007;28;20867;-70
2021/12/24 11:24:20;;;;;;;8.82;6.32;;;;;;;;;;8297374;28;20079;-66
2021/12/24 11:28:23;;;;;;;12.65;10.15;;;;;;;;;;8298873;28;20022;-66
2021/12/24 11:32:25;;;;;;;8.98;7.22;;;;;;;;;;8296819;28;20447;-66
2021/12/24 11:36:34;;;;;;;9.43;7.22;;;;;;;;;;8297494;28;20036;-66
2021/12/24 11:40:39;;;;;;;8.82;6.18;;;;;;;;;;8286807;28;20033;-66
2021/12/24 11:44:46;;;;;;;7.10;6.25;;;;;;;;;;8298373;28;20052;-67
2021/12/24 11:48:49;;;;;;;6.43;5.25;;;;;;;;;;8300865;28;20052;-67
2021/12/24 11:52:51;;;;;;;8.32;5.40;;;;;;;;;;8298419;28;20025;-66
2021/12/24 11:57:03;;;;;;;6.70;5.90;;;;;;;;;;8298368;28;20025;-66
2021/12/24 12:01:08;;;;;;;4.93;4.05;;;;;;;;;;8291102;28;20044;-66
2021/12/24 12:05:11;;;;;;;5.55;4.78;;;;;;;;;;8296194;28;20075;-66
2021/12/24 12:09:18;;;;;;;8.03;5.23;;;;;;;;;;8294027;28;20425;-66
2021/12/24 12:13:43;;;;;;;4.47;3.03;;;;;;;;;;8297032;28;20201;-66
2021/12/24 12:18:04;;;;;;;2.60;2.40;;;;;;;;;;8296384;28;20512;-66
2021/12/24 12:26:34;;;;;;;2.72;2.53;;;;;;;;;;8297787;28;20456;-66
2021/12/24 12:30:39;;;;;;;2.60;2.40;;;;;;;;;;8289774;28;20094;-66
2021/12/24 12:34:52;;;;;;;2.25;1.90;;;;;;;;;;8297931;28;20513;-66
2021/12/24 12:38:58;;;;;;;2.60;2.17;;;;;;;;;;8294564;28;20029;-66
2021/12/24 12:43:08;;;;;;;2.83;2.40;;;;;;;;;;8295024;28;20110;-67
2021/12/24 12:47:23;;;;;;;4.80;2.65;;;;;;;;;;8308447;28;20120;-68
2021/12/24 12:51:44;;;;;;;2.83;2.58;;;;;;;;;;8310976;28;20029;-66
2021/12/24 12:56:12;;;;;;;4.05;2.83;;;;;;;;;;8297132;28;20478;-66
2021/12/24 13:00:20;;;;;;;4.97;3.65;;;;;;;;;;8284668;28;20050;-66
2021/12/24 13:04:20;;;;;;;4.72;3.50;;;;;;;;;;8295286;28;20788;-66
2021/12/24 13:08:32;;;;;;;4.63;3.60;;;;;;;;;;8295823;28;20068;-66
2021/12/24 13:12:32;;;;;;;3.80;3.40;;;;;;;;;;8293087;28;20029;-66
2021/12/24 13:16:37;;;;;;;3.38;3.08;;;;;;;;;;8292773;28;20080;-66
2021/12/24 13:22:27;;;;;;;3.83;3.33;;;;;;;;;;8294369;28;20100;-66
2021/12/24 13:25:22;;;;;;;3.35;3.05;;;;;;;;;;8291903;28;20052;-66
2021/12/24 13:29:29;;;;;;;3.25;2.90;;;;;;;;;;8295131;28;20022;-66
2021/12/24 13:33:43;;;;;;;2.60;2.40;;;;;;;;;;8300697;28;20041;-66
2021/12/24 13:37:50;;;;;;;3.00;2.70;;;;;;;;;;8291475;28;20041;-66
2021/12/24 13:42:03;;;;;;;3.15;2.85;;;;;;;;;;8293403;28;20383;-66
2021/12/24 13:46:19;;;;;;;3.15;2.50;;;;;;;;;;8297104;28;20029;-66
2021/12/24 13:54:35;;;;;;;2.63;2.42;;;;;;;;;;8295236;28;20651;-66
2021/12/24 13:58:50;;;;;;;3.70;3.00;;;;;;;;;;8291853;28;20112;-66
2021/12/24 14:02:59;;;;;;;6.70;4.72;;;;;;;;;;8294355;28;20298;-66
2021/12/24 14:06:59;;;;;;;4.22;3.33;;;;;;;;;;8283508;28;20367;-65
2021/12/24 14:11:08;;;;;;;10.45;6.20;;;;;;;;;;8297407;28;20029;-67
2021/12/24 14:15:22;;;;;;;7.53;5.22;;;;;;;;;;8292767;28;20558;-66
2021/12/24 14:19:34;;;;;;;4.60;4.05;;;;;;;;;;8296225;28;20212;-66
2021/12/24 14:24:09;;;;;;;6.60;4.37;;;;;;;;;;8295397;28;20051;-65
2021/12/24 14:28:25;;;;;;;6.38;5.47;;;;;;;;;;8284021;28;20545;-66
2021/12/24 14:32:37;;;;;;;3.65;3.25;;;;;;;;;;8295808;28;20049;-66
2021/12/24 14:36:59;;;;;;;5.93;4.10;;;;;;;;;;8298518;28;20033;-66
2021/12/24 14:41:01;;;;;;;3.45;3.15;;;;;;;;;;8315683;28;20031;-66
2021/12/24 14:45:20;;;;;;;4.53;4.00;;;;;;;;;;8300692;28;20033;-67
2021/12/24 14:49:52;;;;;;;3.67;3.30;;;;;;;;;;8301581;28;20041;-66
2021/12/24 14:54:06;;;;;;;4.15;3.75;;;;;;;;;;8295692;28;20120;-66
2021/12/24 14:58:13;;;;;;;4.20;3.80;;;;;;;;;;8299461;28;20029;-66
2021/12/24 15:02:17;;;;;;;3.97;3.58;;;;;;;;;;8298893;28;20069;-65
2021/12/24 15:06:19;;;;;;;4.43;4.03;;;;;;;;;;8298039;28;20670;-66
2021/12/24 15:10:31;;;;;;;4.78;4.28;;;;;;;;;;8297297;28;20033;-66
2021/12/24 15:14:41;;;;;;;3.47;3.17;;;;;;;;;;8295849;28;20029;-66
2021/12/24 15:23:14;;;;;;;4.47;3.88;;;;;;;;;;8297056;28;20060;-66
2021/12/24 15:27:32;;;;;;;4.47;4.07;;;;;;;;;;8294723;28;20084;-64
2021/12/24 15:31:34;;;;;;;5.43;4.80;;;;;;;;;;8302199;22;20127;-78
2021/12/24 15:35:34;;;;;;;6.00;5.40;;;;;;;;;;8273092;28;20060;-77
2021/12/24 15:39:34;;;;;;;6.70;5.65;;;;;;;;;;8277157;28;20028;-77
2021/12/24 15:43:35;;;;;;;6.40;5.60;;;;;;;;;;8276590;28;20033;-77
2021/12/24 15:47:35;;;;;;;6.32;5.40;;;;;;;;;;8274382;28;20049;-77
2021/12/24 15:51:36;;;;;;;7.47;6.57;;;;;;;;;;8277221;28;20964;-77
2021/12/24 15:55:37;;;;;;;7.93;6.82;;;;;;;;;;8274745;28;20034;-75
2021/12/24 15:59:38;;;;;;;7.65;6.65;;;;;;;;;;8270273;28;20095;-77
2021/12/24 16:03:38;;;;;;;9.13;7.57;;;;;;;;;;8274541;28;20038;-77
2021/12/24 16:07:39;;;;;;;8.80;7.35;;;;;;;;;;8264589;28;20021;-77
2021/12/24 16:11:39;;;;;;;14.77;7.72;;;;;;;;;;8268376;28;20151;-75
2021/12/24 16:15:45;;;;;;;8.82;7.75;;;;;;;;;;8266959;28;20142;-75
2021/12/24 16:19:45;;;;;;;8.20;6.80;;;;;;;;;;8281839;28;20061;-75
2021/12/24 16:23:45;;;;;;;8.07;6.82;;;;;;;;;;8279621;28;20654;-75
2021/12/24 16:27:45;;;;;;;6.73;6.00;;;;;;;;;;8280150;28;20036;-75
2021/12/24 16:31:48;;;;;;;8.43;5.68;;;;;;;;;;8276490;28;20411;-75
2021/12/24 16:35:48;;;;;;;6.20;5.40;;;;;;;;;;8275970;28;20022;-74
2021/12/24 16:39:48;;;;;;;4.97;4.47;;;;;;;;;;8270801;28;20124;-79
2021/12/24 16:43:49;;;;;;;4.82;4.03;;;;;;;;;;8274349;28;20049;-78
2021/12/24 16:47:49;;;;;;;5.05;4.30;;;;;;;;;;8265375;28;20594;-78
2021/12/24 16:51:50;;;;;;;5.00;4.25;;;;;;;;;;8285234;28;20045;-79
2021/12/24 16:55:52;;;;;;;5.70;4.60;;;;;;;;;;8274932;28;20374;-79
2021/12/24 16:59:52;;;;;;;4.75;4.20;;;;;;;;;;8273137;28;20026;-80
2021/12/24 17:03:52;;;;;;;5.03;4.38;;;;;;;;;;8272933;28;20045;-80
2021/12/24 17:07:53;;;;;;;4.63;4.22;;;;;;;;;;8274464;28;20022;-82
2021/12/24 17:11:53;;;;;;;4.30;3.90;;;;;;;;;;8278951;28;20030;-75
2021/12/24 17:15:53;;;;;;;5.53;5.03;;;;;;;;;;8264545;28;20622;-76
2021/12/24 17:19:57;;;;;;;5.38;4.85;;;;;;;;;;8267652;28;20135;-79
2021/12/24 17:23:57;;;;;;;6.73;4.97;;;;;;;;;;8265264;28;20120;-81
2021/12/24 17:27:57;;;;;;;5.18;4.68;;;;;;;;;;8265306;28;20120;-71
2021/12/24 17:31:57;;;;;;;5.20;4.70;;;;;;;;;;8275240;28;20052;-71
2021/12/24 17:35:58;;;;;;;5.43;4.93;;;;;;;;;;8265955;28;20069;-71
2021/12/24 17:39:58;;;;;;;4.70;4.28;;;;;;;;;;8264605;28;21088;-71
2021/12/24 17:43:58;;;;;;;5.05;4.55;;;;;;;;;;8263726;28;20025;-71
2021/12/24 17:47:58;;;;;;;4.67;4.17;;;;;;;;;;8265978;28;20041;-72
2021/12/24 17:52:00;;;;;;;5.35;4.45;;;;;;;;;;8264850;28;20900;-71
2021/12/24 17:56:00;;;;;;;3.88;3.58;;;;;;;;;;8263798;28;20025;-71
2021/12/24 18:00:00;;;;;;;4.07;3.67;;;;;;;;;;8272073;28;20084;-71
2021/12/24 18:04:01;;;;;;;4.53;4.10;;;;;;;;;;8267133;28;20133;-71
2021/12/24 18:08:01;;;;;;;4.07;3.65;;;;;;;;;;8269839;28;20033;-71
2021/12/24 18:12:03;;;;;;;4.13;3.75;;;;;;;;;;8268391;28;20041;-71
2021/12/24 18:16:03;;;;;;;3.70;3.40;;;;;;;;;;8269817;28;20034;-71
2021/12/24 18:20:05;;;;;;;3.47;3.17;;;;;;;;;;8271545;28;20738;-72
2021/12/24 18:24:06;;;;;;;3.90;3.30;;;;;;;;;;8270408;28;20911;-71
2021/12/24 18:28:06;;;;;;;4.10;2.90;;;;;;;;;;8270007;28;20060;-71
2021/12/24 18:32:06;;;;;;;3.50;3.08;;;;;;;;;;8269060;28;20148;-71
2021/12/24 18:36:12;;;;;;;3.58;3.28;;;;;;;;;;8269979;28;20026;-71
2021/12/24 18:40:13;;;;;;;4.75;4.00;;;;;;;;;;8271862;28;20026;-71
2021/12/24 18:44:15;;;;;;;4.35;3.95;;;;;;;;;;8269057;28;20022;-71
2021/12/24 18:48:16;;;;;;;4.60;3.90;;;;;;;;;;8264769;28;20145;-71
2021/12/24 18:52:16;;;;;;;5.05;3.92;;;;;;;;;;8267604;28;20065;-71
2021/12/24 18:56:16;;;;;;;4.32;3.92;;;;;;;;;;8268629;28;20074;-71
2021/12/24 19:00:16;;;;;;;4.32;3.92;;;;;;;;;;8268332;28;20144;-71
2021/12/24 19:04:17;;;;;;;5.13;4.60;;;;;;;;;;8266710;28;20029;-71
2021/12/24 19:08:17;;;;;;;5.47;4.57;;;;;;;;;;8265696;28;20346;-77
2021/12/24 19:12:18;;;;;;;5.10;4.60;;;;;;;;;;8266919;28;20272;-77
2021/12/24 19:16:20;;;;;;;4.37;3.97;;;;;;;;;;8266774;28;20047;-76
2021/12/24 19:20:21;;;;;;;4.28;3.88;;;;;;;;;;8265117;28;20279;-77
2021/12/24 19:24:21;;;;;;;4.35;3.95;;;;;;;;;;8276489;28;20857;-77
2021/12/24 19:28:22;;;;;;;4.93;4.07;;;;;;;;;;8266732;28;20407;-77
2021/12/24 19:32:22;;;;;;;3.35;3.05;;;;;;;;;;8269169;28;20081;-80
2021/12/24 19:36:22;;;;;;;3.95;3.65;;;;;;;;;;8267978;28;20025;-80
2021/12/24 19:40:25;;;;;;;3.30;3.00;;;;;;;;;;8266437;28;20045;-80
2021/12/24 19:44:26;;;;;;;3.25;2.95;;;;;;;;;;8267908;28;20034;-80
2021/12/24 19:48:26;;;;;;;3.03;2.78;;;;;;;;;;8282345;28;20038;-80
2021/12/24 19:52:27;;;;;;;2.88;2.67;;;;;;;;;;8266197;28;20184;-81
2021/12/24 19:56:27;;;;;;;2.65;2.45;;;;;;;;;;8265853;28;20767;-80
2021/12/24 20:00:27;;;;;;;2.90;2.70;;;;;;;;;;8261852;28;20053;-80
2021/12/24 20:04:28;;;;;;;3.33;2.47;;;;;;;;;;8264075;28;20068;-80
2021/12/24 20:08:28;;;;;;;4.10;3.37;;;;;;;;;;8268004;28;21053;-80
2021/12/24 20:12:28;;;;;;;3.55;3.30;;;;;;;;;;8266269;28;20640;-80
2021/12/24 20:16:28;;;;;;;3.53;3.22;;;;;;;;;;8265029;28;20039;-77
2021/12/24 20:20:29;;;;;;;3.33;3.03;;;;;;;;;;8262478;28;20025;-78
2021/12/24 20:24:30;;;;;;;3.20;2.97;;;;;;;;;;8266341;28;20026;-77
2021/12/24 20:28:30;;;;;;;3.50;2.87;;;;;;;;;;8260337;28;20042;-77
2021/12/24 20:32:30;;;;;;;2.78;2.58;;;;;;;;;;8263061;28;20381;-77
2021/12/24 20:36:30;;;;;;;2.53;2.42;;;;;;;;;;8266989;28;20033;-80
2021/12/24 20:40:31;;;;;;;3.13;2.60;;;;;;;;;;8267158;28;20026;-80
2021/12/24 20:44:31;;;;;;;2.60;2.40;;;;;;;;;;8275706;28;20034;-80
2021/12/24 20:48:32;;;;;;;3.53;3.22;;;;;;;;;;8262120;28;20934;-80
2021/12/24 20:52:32;;;;;;;4.80;3.83;;;;;;;;;;8265891;28;20534;-80
2021/12/24 20:56:33;;;;;;;3.78;3.47;;;;;;;;;;8266117;28;21164;-81
2021/12/24 21:00:34;;;;;;;3.97;3.67;;;;;;;;;;8264954;28;20033;-80
2021/12/24 21:04:35;;;;;;;4.03;3.63;;;;;;;;;;8272865;28;20314;-80
2021/12/24 21:08:35;;;;;;;3.40;3.20;;;;;;;;;;8265048;28;20036;-80
2021/12/24 21:12:35;;;;;;;3.60;3.30;;;;;;;;;;8264582;28;20280;-77
2021/12/24 21:16:36;;;;;;;3.75;3.42;;;;;;;;;;8264925;28;20975;-77
2021/12/24 21:20:36;;;;;;;3.55;3.25;;;;;;;;;;8264067;28;20121;-77
2021/12/24 21:24:38;;;;;;;3.13;2.85;;;;;;;;;;8267405;28;20037;-77
2021/12/24 21:28:40;;;;;;;3.17;2.97;;;;;;;;;;8265098;28;20823;-78
2021/12/24 21:32:40;;;;;;;3.25;2.95;;;;;;;;;;8262021;28;20048;-77
2021/12/24 21:36:40;;;;;;;3.00;2.70;;;;;;;;;;8266586;28;20881;-77
2021/12/24 21:40:41;;;;;;;3.25;2.90;;;;;;;;;;8263908;28;20047;-77
2021/12/24 21:44:41;;;;;;;2.93;2.53;;;;;;;;;;8262962;28;20083;-79
2021/12/24 21:48:41;;;;;;;3.03;2.83;;;;;;;;;;8260600;28;20655;-77
2021/12/24 21:52:42;;;;;;;4.80;3.50;;;;;;;;;;8261707;28;20032;-77
2021/12/24 21:56:42;;;;;;;3.47;2.72;;;;;;;;;;8269522;28;20041;-77
2021/12/24 22:00:43;;;;;;;3.33;3.10;;;;;;;;;;8269047;28;20123;-77
2021/12/24 22:05:08;;;;;;;4.40;3.75;;;;;;;;;;8262384;28;20033;-77
2021/12/24 22:09:06;;;;;;;3.58;3.28;;;;;;;;;;8266418;28;20177;-77
2021/12/24 22:13:07;;;;;;;3.40;3.00;;;;;;;;;;8264168;28;20040;-77
2021/12/24 22:17:07;;;;;;;2.83;2.63;;;;;;;;;;8269353;28;20029;-77
2021/12/24 22:21:08;;;;;;;3.95;2.50;;;;;;;;;;8278622;28;20026;-77
2021/12/24 22:25:10;;;;;;;2.95;2.72;;;;;;;;;;8266464;28;20054;-77
2021/12/24 22:29:19;;;;;;;3.72;2.35;;;;;;;;;;8265737;28;20025;-78
2021/12/24 22:33:20;;;;;;;2.65;2.45;;;;;;;;;;8262900;28;20050;-77
2021/12/24 22:37:20;;;;;;;3.00;2.50;;;;;;;;;;8261374;28;21077;-77
2021/12/24 22:41:21;;;;;;;2.50;2.30;;;;;;;;;;8254097;28;20036;-77
2021/12/24 22:45:22;;;;;;;4.72;2.30;;;;;;;;;;8266117;28;20034;-77
2021/12/24 22:49:23;;;;;;;2.33;2.13;;;;;;;;;;8269405;28;20033;-76
2021/12/24 22:53:23;;;;;;;2.30;2.10;;;;;;;;;;8286101;28;20030;-77
2021/12/24 22:57:23;;;;;;;5.07;3.72;;;;;;;;;;8267042;28;20030;-72
2021/12/24 23:01:23;;;;;;;6.10;3.40;;;;;;;;;;8266641;28;20141;-72
2021/12/24 23:05:24;;;;;;;2.72;2.30;;;;;;;;;;8269011;28;20306;-71
2021/12/24 23:09:24;;;;;;;2.42;2.20;;;;;;;;;;8272419;28;20423;-78
2021/12/24 23:13:26;;;;;;;2.03;1.83;;;;;;;;;;8273164;28;20034;-78
2021/12/24 23:17:27;;;;;;;4.30;1.92;;;;;;;;;;8270919;28;20041;-78
2021/12/24 23:21:32;;;;;;;3.55;2.13;;;;;;;;;;8269838;28;20048;-77
2021/12/24 23:25:32;;;;;;;3.60;2.17;;;;;;;;;;8279550;28;20014;-77
2021/12/24 23:29:32;;;;;;;3.10;2.20;;;;;;;;;;8267361;28;20026;-77
2021/12/24 23:33:33;;;;;;;2.50;2.30;;;;;;;;;;8265457;28;20522;-77
2021/12/24 23:37:33;;;;;;;3.42;2.42;;;;;;;;;;8263266;28;20218;-77
2021/12/24 23:41:34;;;;;;;3.80;2.50;;;;;;;;;;8275357;28;20717;-77
2021/12/24 23:45:39;;;;;;;3.95;2.70;;;;;;;;;;8283964;28;20260;-77
2021/12/24 23:49:39;;;;;;;3.03;2.65;;;;;;;;;;8268973;28;20059;-77
2021/12/24 23:53:39;;;;;;;3.38;2.92;;;;;;;;;;8264351;28;20124;-77
2021/12/24 23:57:39;;;;;;;2.90;2.60;;;;;;;;;;8269907;28;20788;-85
